sensor_id;sensor_type;location;lat;lon;timestamp;P1;durP1;ratioP1;P2;durP2;ratioP2
53714;SDS011;39608;55.630;37.864;2022-10-15T00:04:56;8.48;;;3.70;;
53714;SDS011;39608;55.630;37.864;2022-10-15T00:10:10;7.68;;;3.35;;
53714;SDS011;39608;55.630;37.864;2022-10-15T00:15:12;6.30;;;3.35;;
53714;SDS011;39608;55.630;37.864;2022-10-15T00:20:14;6.18;;;3.58;;
53714;SDS011;39608;55.630;37.864;2022-10-15T00:25:18;6.75;;;2.90;;
53714;SDS011;39608;55.630;37.864;2022-10-15T00:30:20;6.60;;;3.35;;
53714;SDS011;39608;55.630;37.864;2022-10-15T00:35:22;8.10;;;3.53;;
53714;SDS011;39608;55.630;37.864;2022-10-15T00:40:25;6.82;;;4.00;;
53714;SDS011;39608;55.630;37.864;2022-10-15T00:45:27;7.40;;;3.13;;
53714;SDS011;39608;55.630;37.864;2022-10-15T00:50:29;8.55;;;3.25;;
53714;SDS011;39608;55.630;37.864;2022-10-15T00:55:33;4.95;;;3.35;;
53714;SDS011;39608;55.630;37.864;2022-10-15T01:00:37;6.63;;;3.05;;
53714;SDS011;39608;55.630;37.864;2022-10-15T01:05:39;9.40;;;3.70;;
53714;SDS011;39608;55.630;37.864;2022-10-15T01:10:46;5.03;;;3.22;;
53714;SDS011;39608;55.630;37.864;2022-10-15T01:15:57;9.90;;;4.35;;
53714;SDS011;39608;55.630;37.864;2022-10-15T01:21:06;6.78;;;3.35;;
53714;SDS011;39608;55.630;37.864;2022-10-15T01:26:21;7.97;;;3.55;;
53714;SDS011;39608;55.630;37.864;2022-10-15T01:31:39;8.13;;;3.58;;
53714;SDS011;39608;55.630;37.864;2022-10-15T01:36:47;7.78;;;3.30;;
53714;SDS011;39608;55.630;37.864;2022-10-15T01:42:00;6.05;;;3.05;;
53714;SDS011;39608;55.630;37.864;2022-10-15T01:47:08;4.67;;;2.87;;
53714;SDS011;39608;55.630;37.864;2022-10-15T01:52:15;4.47;;;3.05;;
53714;SDS011;39608;55.630;37.864;2022-10-15T01:57:22;4.57;;;2.80;;
53714;SDS011;39608;55.630;37.864;2022-10-15T02:02:29;7.32;;;2.83;;
53714;SDS011;39608;55.630;37.864;2022-10-15T02:07:32;5.30;;;2.70;;
53714;SDS011;39608;55.630;37.864;2022-10-15T02:12:43;4.90;;;2.75;;
53714;SDS011;39608;55.630;37.864;2022-10-15T02:17:56;6.53;;;3.15;;
53714;SDS011;39608;55.630;37.864;2022-10-15T02:23:06;6.28;;;3.33;;
53714;SDS011;39608;55.630;37.864;2022-10-15T02:28:12;5.03;;;3.22;;
53714;SDS011;39608;55.630;37.864;2022-10-15T02:33:20;5.75;;;3.33;;
53714;SDS011;39608;55.630;37.864;2022-10-15T02:38:24;5.05;;;2.83;;
53714;SDS011;39608;55.630;37.864;2022-10-15T02:43:30;5.93;;;2.70;;
53714;SDS011;39608;55.630;37.864;2022-10-15T02:48:33;10.80;;;3.50;;
53714;SDS011;39608;55.630;37.864;2022-10-15T02:53:35;8.85;;;3.22;;
53714;SDS011;39608;55.630;37.864;2022-10-15T02:58:38;4.40;;;2.60;;
53714;SDS011;39608;55.630;37.864;2022-10-15T03:03:41;7.30;;;2.95;;
53714;SDS011;39608;55.630;37.864;2022-10-15T03:08:43;5.10;;;2.47;;
53714;SDS011;39608;55.630;37.864;2022-10-15T03:13:45;8.70;;;3.35;;
53714;SDS011;39608;55.630;37.864;2022-10-15T03:18:49;10.07;;;3.30;;
53714;SDS011;39608;55.630;37.864;2022-10-15T03:23:50;9.18;;;3.45;;
53714;SDS011;39608;55.630;37.864;2022-10-15T03:28:52;6.88;;;3.25;;
53714;SDS011;39608;55.630;37.864;2022-10-15T03:33:56;8.10;;;3.55;;
53714;SDS011;39608;55.630;37.864;2022-10-15T03:38:58;4.82;;;2.78;;
53714;SDS011;39608;55.630;37.864;2022-10-15T03:44:00;4.20;;;2.92;;
53714;SDS011;39608;55.630;37.864;2022-10-15T03:49:04;4.18;;;2.92;;
53714;SDS011;39608;55.630;37.864;2022-10-15T03:54:06;5.45;;;3.42;;
53714;SDS011;39608;55.630;37.864;2022-10-15T03:59:08;10.55;;;3.60;;
53714;SDS011;39608;55.630;37.864;2022-10-15T04:04:11;7.57;;;3.60;;
53714;SDS011;39608;55.630;37.864;2022-10-15T04:09:13;6.97;;;3.40;;
53714;SDS011;39608;55.630;37.864;2022-10-15T04:14:16;7.38;;;3.15;;
53714;SDS011;39608;55.630;37.864;2022-10-15T04:19:20;6.82;;;3.08;;
53714;SDS011;39608;55.630;37.864;2022-10-15T04:24:23;5.68;;;3.10;;
53714;SDS011;39608;55.630;37.864;2022-10-15T04:29:25;9.15;;;3.40;;
53714;SDS011;39608;55.630;37.864;2022-10-15T04:34:28;6.47;;;3.40;;
53714;SDS011;39608;55.630;37.864;2022-10-15T04:39:30;5.70;;;3.20;;
53714;SDS011;39608;55.630;37.864;2022-10-15T04:44:32;16.00;;;3.40;;
53714;SDS011;39608;55.630;37.864;2022-10-15T04:49:36;4.60;;;3.40;;
53714;SDS011;39608;55.630;37.864;2022-10-15T04:54:38;7.88;;;3.65;;
53714;SDS011;39608;55.630;37.864;2022-10-15T04:59:40;4.55;;;3.15;;
53714;SDS011;39608;55.630;37.864;2022-10-15T05:04:45;6.93;;;3.10;;
53714;SDS011;39608;55.630;37.864;2022-10-15T05:09:47;8.80;;;3.20;;
53714;SDS011;39608;55.630;37.864;2022-10-15T05:14:49;7.50;;;3.55;;
53714;SDS011;39608;55.630;37.864;2022-10-15T05:19:52;5.65;;;2.97;;
53714;SDS011;39608;55.630;37.864;2022-10-15T05:24:54;6.10;;;3.13;;
53714;SDS011;39608;55.630;37.864;2022-10-15T05:29:56;6.32;;;3.33;;
53714;SDS011;39608;55.630;37.864;2022-10-15T05:35:00;12.43;;;3.30;;
53714;SDS011;39608;55.630;37.864;2022-10-15T05:40:04;8.15;;;3.45;;
53714;SDS011;39608;55.630;37.864;2022-10-15T05:45:07;8.18;;;2.67;;
53714;SDS011;39608;55.630;37.864;2022-10-15T05:50:11;5.70;;;3.65;;
53714;SDS011;39608;55.630;37.864;2022-10-15T05:55:13;6.55;;;3.15;;
53714;SDS011;39608;55.630;37.864;2022-10-15T06:00:15;13.65;;;3.63;;
53714;SDS011;39608;55.630;37.864;2022-10-15T06:05:19;9.35;;;3.83;;
53714;SDS011;39608;55.630;37.864;2022-10-15T06:10:21;9.15;;;4.47;;
53714;SDS011;39608;55.630;37.864;2022-10-15T06:15:23;9.10;;;4.03;;
53714;SDS011;39608;55.630;37.864;2022-10-15T06:20:27;14.57;;;4.88;;
53714;SDS011;39608;55.630;37.864;2022-10-15T06:25:29;10.05;;;4.85;;
53714;SDS011;39608;55.630;37.864;2022-10-15T06:30:31;13.02;;;4.95;;
53714;SDS011;39608;55.630;37.864;2022-10-15T06:35:35;11.00;;;4.47;;
53714;SDS011;39608;55.630;37.864;2022-10-15T06:40:37;22.58;;;4.93;;
53714;SDS011;39608;55.630;37.864;2022-10-15T06:45:39;14.68;;;5.10;;
53714;SDS011;39608;55.630;37.864;2022-10-15T06:50:43;8.75;;;4.25;;
53714;SDS011;39608;55.630;37.864;2022-10-15T06:55:46;12.35;;;4.18;;
53714;SDS011;39608;55.630;37.864;2022-10-15T07:00:48;12.73;;;4.35;;
53714;SDS011;39608;55.630;37.864;2022-10-15T07:05:51;12.75;;;4.60;;
53714;SDS011;39608;55.630;37.864;2022-10-15T07:10:53;16.02;;;5.13;;
53714;SDS011;39608;55.630;37.864;2022-10-15T07:15:55;13.00;;;4.80;;
53714;SDS011;39608;55.630;37.864;2022-10-15T07:20:59;7.28;;;4.30;;
53714;SDS011;39608;55.630;37.864;2022-10-15T07:26:01;9.10;;;3.72;;
53714;SDS011;39608;55.630;37.864;2022-10-15T07:31:04;11.95;;;4.72;;
53714;SDS011;39608;55.630;37.864;2022-10-15T07:36:09;12.77;;;4.45;;
53714;SDS011;39608;55.630;37.864;2022-10-15T07:41:13;10.55;;;4.20;;
53714;SDS011;39608;55.630;37.864;2022-10-15T07:46:15;8.45;;;3.97;;
53714;SDS011;39608;55.630;37.864;2022-10-15T07:51:19;7.00;;;4.22;;
53714;SDS011;39608;55.630;37.864;2022-10-15T07:56:21;15.93;;;4.57;;
53714;SDS011;39608;55.630;37.864;2022-10-15T08:01:23;8.32;;;3.70;;
53714;SDS011;39608;55.630;37.864;2022-10-15T08:06:26;18.13;;;4.07;;
53714;SDS011;39608;55.630;37.864;2022-10-15T08:11:29;10.63;;;4.10;;
53714;SDS011;39608;55.630;37.864;2022-10-15T08:16:31;10.38;;;3.85;;
53714;SDS011;39608;55.630;37.864;2022-10-15T08:21:35;9.40;;;4.50;;
53714;SDS011;39608;55.630;37.864;2022-10-15T08:26:37;8.82;;;4.28;;
53714;SDS011;39608;55.630;37.864;2022-10-15T08:31:40;13.23;;;4.57;;
53714;SDS011;39608;55.630;37.864;2022-10-15T08:36:43;5.93;;;3.60;;
53714;SDS011;39608;55.630;37.864;2022-10-15T08:41:46;6.47;;;3.85;;
53714;SDS011;39608;55.630;37.864;2022-10-15T08:46:53;14.80;;;4.45;;
53714;SDS011;39608;55.630;37.864;2022-10-15T08:52:03;9.32;;;4.50;;
53714;SDS011;39608;55.630;37.864;2022-10-15T08:57:16;6.80;;;4.30;;
53714;SDS011;39608;55.630;37.864;2022-10-15T09:02:30;10.63;;;3.70;;
53714;SDS011;39608;55.630;37.864;2022-10-15T09:07:41;7.97;;;4.10;;
53714;SDS011;39608;55.630;37.864;2022-10-15T09:12:49;12.43;;;4.25;;
53714;SDS011;39608;55.630;37.864;2022-10-15T09:17:59;14.70;;;5.13;;
53714;SDS011;39608;55.630;37.864;2022-10-15T09:23:02;13.88;;;4.30;;
53714;SDS011;39608;55.630;37.864;2022-10-15T09:28:12;9.15;;;5.18;;
53714;SDS011;39608;55.630;37.864;2022-10-15T09:33:23;9.00;;;5.05;;
53714;SDS011;39608;55.630;37.864;2022-10-15T09:38:36;8.68;;;5.28;;
53714;SDS011;39608;55.630;37.864;2022-10-15T09:43:45;17.92;;;5.55;;
53714;SDS011;39608;55.630;37.864;2022-10-15T09:48:51;15.43;;;6.05;;
53714;SDS011;39608;55.630;37.864;2022-10-15T09:54:07;13.90;;;6.43;;
53714;SDS011;39608;55.630;37.864;2022-10-15T09:59:14;14.57;;;6.63;;
53714;SDS011;39608;55.630;37.864;2022-10-15T10:04:17;19.75;;;6.50;;
53714;SDS011;39608;55.630;37.864;2022-10-15T10:09:23;10.57;;;5.70;;
53714;SDS011;39608;55.630;37.864;2022-10-15T10:14:28;15.98;;;6.40;;
53714;SDS011;39608;55.630;37.864;2022-10-15T10:19:32;18.15;;;6.47;;
53714;SDS011;39608;55.630;37.864;2022-10-15T10:24:36;17.17;;;6.90;;
53714;SDS011;39608;55.630;37.864;2022-10-15T10:29:39;13.45;;;6.20;;
53714;SDS011;39608;55.630;37.864;2022-10-15T10:34:43;12.00;;;6.22;;
53714;SDS011;39608;55.630;37.864;2022-10-15T10:39:46;13.52;;;6.63;;
53714;SDS011;39608;55.630;37.864;2022-10-15T10:44:54;17.30;;;7.00;;
53714;SDS011;39608;55.630;37.864;2022-10-15T10:49:56;15.75;;;6.50;;
53714;SDS011;39608;55.630;37.864;2022-10-15T10:55:00;18.65;;;6.85;;
53714;SDS011;39608;55.630;37.864;2022-10-15T11:00:06;19.48;;;7.68;;
53714;SDS011;39608;55.630;37.864;2022-10-15T11:05:12;16.58;;;6.38;;
53714;SDS011;39608;55.630;37.864;2022-10-15T11:10:20;15.07;;;6.45;;
53714;SDS011;39608;55.630;37.864;2022-10-15T11:15:28;16.55;;;6.65;;
53714;SDS011;39608;55.630;37.864;2022-10-15T11:20:43;13.02;;;6.45;;
53714;SDS011;39608;55.630;37.864;2022-10-15T11:25:52;10.63;;;6.47;;
53714;SDS011;39608;55.630;37.864;2022-10-15T11:31:02;19.33;;;7.03;;
53714;SDS011;39608;55.630;37.864;2022-10-15T11:36:18;18.42;;;7.30;;
53714;SDS011;39608;55.630;37.864;2022-10-15T11:41:33;14.85;;;6.75;;
53714;SDS011;39608;55.630;37.864;2022-10-15T11:46:41;24.05;;;7.00;;
53714;SDS011;39608;55.630;37.864;2022-10-15T11:51:58;18.17;;;7.97;;
53714;SDS011;39608;55.630;37.864;2022-10-15T11:57:10;12.35;;;6.93;;
53714;SDS011;39608;55.630;37.864;2022-10-15T12:02:17;21.15;;;7.75;;
53714;SDS011;39608;55.630;37.864;2022-10-15T12:07:23;23.25;;;7.65;;
53714;SDS011;39608;55.630;37.864;2022-10-15T12:12:32;14.52;;;7.03;;
53714;SDS011;39608;55.630;37.864;2022-10-15T12:17:44;12.93;;;7.15;;
53714;SDS011;39608;55.630;37.864;2022-10-15T12:22:55;16.50;;;6.47;;
53714;SDS011;39608;55.630;37.864;2022-10-15T12:28:01;11.65;;;5.97;;
53714;SDS011;39608;55.630;37.864;2022-10-15T12:33:20;14.93;;;6.67;;
53714;SDS011;39608;55.630;37.864;2022-10-15T12:38:27;14.00;;;7.10;;
53714;SDS011;39608;55.630;37.864;2022-10-15T12:43:33;12.32;;;6.35;;
53714;SDS011;39608;55.630;37.864;2022-10-15T12:48:38;21.10;;;7.63;;
53714;SDS011;39608;55.630;37.864;2022-10-15T12:53:42;17.40;;;7.68;;
53714;SDS011;39608;55.630;37.864;2022-10-15T12:58:47;15.98;;;7.05;;
53714;SDS011;39608;55.630;37.864;2022-10-15T13:03:51;10.75;;;6.40;;
53714;SDS011;39608;55.630;37.864;2022-10-15T13:14:32;12.30;;;6.35;;
53714;SDS011;39608;55.630;37.864;2022-10-15T13:19:38;13.73;;;7.00;;
53714;SDS011;39608;55.630;37.864;2022-10-15T13:24:46;20.23;;;7.20;;
53714;SDS011;39608;55.630;37.864;2022-10-15T13:29:53;17.95;;;6.63;;
53714;SDS011;39608;55.630;37.864;2022-10-15T13:34:59;22.35;;;8.02;;
53714;SDS011;39608;55.630;37.864;2022-10-15T13:40:04;19.08;;;7.60;;
53714;SDS011;39608;55.630;37.864;2022-10-15T13:45:15;23.45;;;7.53;;
53714;SDS011;39608;55.630;37.864;2022-10-15T13:50:20;18.02;;;8.05;;
53714;SDS011;39608;55.630;37.864;2022-10-15T13:55:25;24.40;;;7.90;;
53714;SDS011;39608;55.630;37.864;2022-10-15T14:00:30;17.52;;;7.38;;
53714;SDS011;39608;55.630;37.864;2022-10-15T14:05:34;12.88;;;7.50;;
53714;SDS011;39608;55.630;37.864;2022-10-15T14:10:36;15.48;;;7.13;;
53714;SDS011;39608;55.630;37.864;2022-10-15T14:15:45;16.65;;;7.10;;
53714;SDS011;39608;55.630;37.864;2022-10-15T14:20:51;15.77;;;6.55;;
53714;SDS011;39608;55.630;37.864;2022-10-15T14:25:54;17.75;;;7.15;;
53714;SDS011;39608;55.630;37.864;2022-10-15T14:30:59;15.30;;;7.20;;
53714;SDS011;39608;55.630;37.864;2022-10-15T14:36:03;12.00;;;6.57;;
53714;SDS011;39608;55.630;37.864;2022-10-15T14:41:18;15.73;;;6.78;;
53714;SDS011;39608;55.630;37.864;2022-10-15T14:46:26;16.27;;;6.93;;
53714;SDS011;39608;55.630;37.864;2022-10-15T14:51:35;21.13;;;7.35;;
53714;SDS011;39608;55.630;37.864;2022-10-15T14:56:38;14.65;;;7.50;;
53714;SDS011;39608;55.630;37.864;2022-10-15T15:01:51;16.40;;;7.20;;
53714;SDS011;39608;55.630;37.864;2022-10-15T15:06:54;16.35;;;7.68;;
53714;SDS011;39608;55.630;37.864;2022-10-15T15:11:56;15.82;;;7.57;;
53714;SDS011;39608;55.630;37.864;2022-10-15T15:17:00;21.90;;;8.10;;
53714;SDS011;39608;55.630;37.864;2022-10-15T15:22:02;17.90;;;7.82;;
53714;SDS011;39608;55.630;37.864;2022-10-15T15:27:04;29.52;;;8.52;;
53714;SDS011;39608;55.630;37.864;2022-10-15T15:32:08;29.90;;;8.98;;
53714;SDS011;39608;55.630;37.864;2022-10-15T15:37:11;24.45;;;8.40;;
53714;SDS011;39608;55.630;37.864;2022-10-15T15:42:17;30.17;;;8.30;;
53714;SDS011;39608;55.630;37.864;2022-10-15T15:47:23;29.07;;;9.00;;
53714;SDS011;39608;55.630;37.864;2022-10-15T15:52:25;26.00;;;9.23;;
53714;SDS011;39608;55.630;37.864;2022-10-15T15:57:27;23.30;;;9.52;;
53714;SDS011;39608;55.630;37.864;2022-10-15T16:02:31;29.58;;;10.77;;
53714;SDS011;39608;55.630;37.864;2022-10-15T16:07:33;23.55;;;10.25;;
53714;SDS011;39608;55.630;37.864;2022-10-15T16:12:35;29.02;;;10.65;;
53714;SDS011;39608;55.630;37.864;2022-10-15T16:17:39;26.98;;;10.38;;
53714;SDS011;39608;55.630;37.864;2022-10-15T16:22:41;25.35;;;11.00;;
53714;SDS011;39608;55.630;37.864;2022-10-15T16:27:43;28.50;;;10.07;;
53714;SDS011;39608;55.630;37.864;2022-10-15T16:32:49;23.52;;;10.60;;
53714;SDS011;39608;55.630;37.864;2022-10-15T16:37:55;21.40;;;10.50;;
53714;SDS011;39608;55.630;37.864;2022-10-15T16:43:00;18.73;;;10.43;;
53714;SDS011;39608;55.630;37.864;2022-10-15T16:48:08;30.75;;;11.15;;
53714;SDS011;39608;55.630;37.864;2022-10-15T16:53:10;24.38;;;11.02;;
53714;SDS011;39608;55.630;37.864;2022-10-15T16:58:12;34.67;;;11.43;;
53714;SDS011;39608;55.630;37.864;2022-10-15T17:03:15;35.67;;;12.02;;
53714;SDS011;39608;55.630;37.864;2022-10-15T17:08:17;28.50;;;11.20;;
53714;SDS011;39608;55.630;37.864;2022-10-15T17:13:20;25.25;;;10.82;;
53714;SDS011;39608;55.630;37.864;2022-10-15T17:18:24;22.27;;;11.45;;
53714;SDS011;39608;55.630;37.864;2022-10-15T17:23:30;25.77;;;11.00;;
53714;SDS011;39608;55.630;37.864;2022-10-15T17:28:32;26.17;;;11.23;;
53714;SDS011;39608;55.630;37.864;2022-10-15T17:33:37;28.38;;;11.25;;
53714;SDS011;39608;55.630;37.864;2022-10-15T17:38:40;26.23;;;10.35;;
53714;SDS011;39608;55.630;37.864;2022-10-15T17:43:42;31.40;;;10.30;;
53714;SDS011;39608;55.630;37.864;2022-10-15T17:48:45;28.83;;;12.18;;
53714;SDS011;39608;55.630;37.864;2022-10-15T17:53:49;23.88;;;10.65;;
53714;SDS011;39608;55.630;37.864;2022-10-15T17:58:52;19.95;;;9.82;;
53714;SDS011;39608;55.630;37.864;2022-10-15T18:03:56;19.40;;;10.55;;
53714;SDS011;39608;55.630;37.864;2022-10-15T18:08:59;23.63;;;10.95;;
53714;SDS011;39608;55.630;37.864;2022-10-15T18:14:01;25.83;;;9.10;;
53714;SDS011;39608;55.630;37.864;2022-10-15T18:19:05;20.45;;;10.55;;
53714;SDS011;39608;55.630;37.864;2022-10-15T18:24:08;23.30;;;10.85;;
53714;SDS011;39608;55.630;37.864;2022-10-15T18:29:10;25.17;;;10.45;;
53714;SDS011;39608;55.630;37.864;2022-10-15T18:34:13;25.10;;;10.90;;
53714;SDS011;39608;55.630;37.864;2022-10-15T18:39:16;19.13;;;9.10;;
53714;SDS011;39608;55.630;37.864;2022-10-15T18:44:18;27.00;;;10.20;;
53714;SDS011;39608;55.630;37.864;2022-10-15T18:49:24;20.73;;;9.30;;
53714;SDS011;39608;55.630;37.864;2022-10-15T18:54:26;19.08;;;9.57;;
53714;SDS011;39608;55.630;37.864;2022-10-15T18:59:35;21.65;;;10.02;;
53714;SDS011;39608;55.630;37.864;2022-10-15T19:04:40;18.35;;;9.43;;
53714;SDS011;39608;55.630;37.864;2022-10-15T19:09:42;21.98;;;8.88;;
53714;SDS011;39608;55.630;37.864;2022-10-15T19:14:44;19.25;;;8.07;;
53714;SDS011;39608;55.630;37.864;2022-10-15T19:19:48;17.90;;;8.88;;
53714;SDS011;39608;55.630;37.864;2022-10-15T19:24:50;24.08;;;9.45;;
53714;SDS011;39608;55.630;37.864;2022-10-15T19:29:53;19.20;;;8.07;;
53714;SDS011;39608;55.630;37.864;2022-10-15T19:34:56;17.73;;;7.75;;
53714;SDS011;39608;55.630;37.864;2022-10-15T19:39:59;19.98;;;7.97;;
53714;SDS011;39608;55.630;37.864;2022-10-15T19:45:04;17.00;;;8.43;;
53714;SDS011;39608;55.630;37.864;2022-10-15T19:50:08;18.95;;;8.00;;
53714;SDS011;39608;55.630;37.864;2022-10-15T19:55:13;17.17;;;8.40;;
53714;SDS011;39608;55.630;37.864;2022-10-15T20:00:15;22.00;;;8.13;;
53714;SDS011;39608;55.630;37.864;2022-10-15T20:05:19;12.68;;;7.93;;
53714;SDS011;39608;55.630;37.864;2022-10-15T20:10:21;12.07;;;7.95;;
53714;SDS011;39608;55.630;37.864;2022-10-15T20:15:23;17.35;;;8.20;;
53714;SDS011;39608;55.630;37.864;2022-10-15T20:20:27;18.27;;;7.80;;
53714;SDS011;39608;55.630;37.864;2022-10-15T20:25:35;17.83;;;7.20;;
53714;SDS011;39608;55.630;37.864;2022-10-15T20:30:37;18.95;;;8.23;;
53714;SDS011;39608;55.630;37.864;2022-10-15T20:35:41;12.63;;;6.13;;
53714;SDS011;39608;55.630;37.864;2022-10-15T20:40:43;12.32;;;6.22;;
53714;SDS011;39608;55.630;37.864;2022-10-15T20:45:45;11.52;;;6.43;;
53714;SDS011;39608;55.630;37.864;2022-10-15T20:50:49;14.77;;;6.78;;
53714;SDS011;39608;55.630;37.864;2022-10-15T20:55:53;20.65;;;6.53;;
53714;SDS011;39608;55.630;37.864;2022-10-15T21:00:55;13.30;;;6.55;;
53714;SDS011;39608;55.630;37.864;2022-10-15T21:06:00;23.45;;;7.60;;
53714;SDS011;39608;55.630;37.864;2022-10-15T21:11:02;11.18;;;5.50;;
53714;SDS011;39608;55.630;37.864;2022-10-15T21:16:05;11.30;;;6.28;;
53714;SDS011;39608;55.630;37.864;2022-10-15T21:21:10;16.40;;;7.00;;
53714;SDS011;39608;55.630;37.864;2022-10-15T21:26:15;13.20;;;6.55;;
53714;SDS011;39608;55.630;37.864;2022-10-15T21:31:18;11.80;;;5.65;;
53714;SDS011;39608;55.630;37.864;2022-10-15T21:36:22;12.82;;;5.90;;
53714;SDS011;39608;55.630;37.864;2022-10-15T21:41:26;9.90;;;5.45;;
53714;SDS011;39608;55.630;37.864;2022-10-15T21:46:30;10.98;;;4.97;;
53714;SDS011;39608;55.630;37.864;2022-10-15T21:51:34;12.82;;;5.68;;
53714;SDS011;39608;55.630;37.864;2022-10-15T21:56:37;13.15;;;6.00;;
53714;SDS011;39608;55.630;37.864;2022-10-15T22:01:40;17.10;;;5.82;;
53714;SDS011;39608;55.630;37.864;2022-10-15T22:06:45;12.27;;;5.68;;
53714;SDS011;39608;55.630;37.864;2022-10-15T22:11:47;14.75;;;5.47;;
53714;SDS011;39608;55.630;37.864;2022-10-15T22:16:49;10.73;;;5.30;;
53714;SDS011;39608;55.630;37.864;2022-10-15T22:21:52;9.32;;;4.95;;
53714;SDS011;39608;55.630;37.864;2022-10-15T22:26:54;8.82;;;4.47;;
53714;SDS011;39608;55.630;37.864;2022-10-15T22:31:56;17.95;;;5.55;;
53714;SDS011;39608;55.630;37.864;2022-10-15T22:37:00;7.28;;;4.40;;
53714;SDS011;39608;55.630;37.864;2022-10-15T22:42:02;9.10;;;4.32;;
53714;SDS011;39608;55.630;37.864;2022-10-15T22:47:05;13.02;;;4.28;;
53714;SDS011;39608;55.630;37.864;2022-10-15T22:52:10;13.35;;;3.67;;
53714;SDS011;39608;55.630;37.864;2022-10-15T22:57:12;6.55;;;3.97;;
53714;SDS011;39608;55.630;37.864;2022-10-15T23:02:14;6.68;;;3.75;;
53714;SDS011;39608;55.630;37.864;2022-10-15T23:07:21;9.43;;;4.47;;
53714;SDS011;39608;55.630;37.864;2022-10-15T23:12:23;11.35;;;3.97;;
53714;SDS011;39608;55.630;37.864;2022-10-15T23:17:25;7.50;;;3.80;;
53714;SDS011;39608;55.630;37.864;2022-10-15T23:22:29;7.20;;;3.97;;
53714;SDS011;39608;55.630;37.864;2022-10-15T23:27:31;7.03;;;4.00;;
53714;SDS011;39608;55.630;37.864;2022-10-15T23:32:33;8.77;;;4.20;;
53714;SDS011;39608;55.630;37.864;2022-10-15T23:37:39;6.82;;;4.20;;
53714;SDS011;39608;55.630;37.864;2022-10-15T23:42:41;10.93;;;4.82;;
53714;SDS011;39608;55.630;37.864;2022-10-15T23:47:43;9.55;;;4.18;;
53714;SDS011;39608;55.630;37.864;2022-10-15T23:52:47;12.35;;;4.30;;
53714;SDS011;39608;55.630;37.864;2022-10-15T23:57:49;6.75;;;4.28;;
